Time;durP1;ratioP1;P1;durP2;ratioP2;P2;SDS_P1;SDS_P2;PMS_P1;PMS_P2;Temp;Humidity;BMP_temperature;BMP_pressure;BME280_temperature;BME280_humidity;BME280_pressure;Samples;Min_cycle;Max_cycle;Signal;HPM_P1;HPM_P2
2022/05/07 00:01:11;;;;;;;15.18;5.28;;;;;;;10.63;33.53;100191.44;4946623;28;20047;-73
2022/05/07 00:03:38;;;;;;;23.58;4.97;;;;;;;10.63;33.57;100187.88;4949678;29;20048;-73
2022/05/07 00:06:04;;;;;;;15.93;5.00;;;;;;;10.51;33.61;100188.09;4935050;29;20055;-73
2022/05/07 00:08:31;;;;;;;21.30;4.50;;;;;;;10.56;33.67;100185.38;4938493;29;20053;-72
2022/05/07 00:10:57;;;;;;;23.15;4.60;;;;;;;10.62;33.64;100181.59;4943433;29;20071;-74
2022/05/07 00:13:25;;;;;;;11.05;4.65;;;;;;;10.64;33.41;100187.63;4934846;29;20055;-74
2022/05/07 00:18:36;;;;;;;13.35;5.20;;;;;;;10.63;33.38;100188.72;4938871;29;20058;-73
2022/05/07 00:21:02;;;;;;;14.90;4.82;;;;;;;10.59;33.37;100195.78;4941033;29;20413;-72
2022/05/07 00:23:30;;;;;;;13.17;4.23;;;;;;;10.59;33.52;100190.31;4936653;29;20051;-72
2022/05/07 00:25:56;;;;;;;;;;;;;;;10.53;33.73;100185.91;4943698;29;20052;-73
2022/05/07 00:28:23;;;;;;;16.20;4.78;;;;;;;10.39;33.61;100176.50;4918311;29;19927;-73
2022/05/07 00:30:50;;;;;;;11.75;4.80;;;;;;;10.53;33.78;100193.28;4933201;29;20052;-73
2022/05/07 00:33:16;;;;;;;17.05;4.30;;;;;;;10.51;33.79;100204.50;4932049;29;20095;-72
2022/05/07 00:35:42;;;;;;;14.93;5.28;;;;;;;10.47;33.80;100190.53;4933158;29;20056;-72
2022/05/07 00:38:08;;;;;;;13.90;4.18;;;;;;;10.53;33.78;100193.28;4940151;29;20139;-72
2022/05/07 00:40:36;;;;;;;13.10;4.75;;;;;;;10.52;33.69;100202.56;4947875;29;20134;-72
2022/05/07 00:43:02;;;;;;;13.63;4.45;;;;;;;10.49;33.66;100191.09;4935544;29;20126;-73
2022/05/07 00:45:29;;;;;;;25.25;4.18;;;;;;;10.41;33.91;100188.88;4936283;29;20055;-74
2022/05/07 00:47:57;;;;;;;13.90;4.18;;;;;;;10.38;34.09;100194.00;4940465;29;20054;-74
2022/05/07 00:53:08;;;;;;;24.50;5.70;;;;;;;10.43;33.80;100192.16;4951972;29;20520;-74
2022/05/07 00:55:35;;;;;;;19.43;4.43;;;;;;;10.31;34.29;100200.53;4949893;29;20051;-73
2022/05/07 00:58:02;;;;;;;15.65;3.90;;;;;;;10.34;34.14;100202.72;4935234;29;20056;-72
2022/05/07 01:00:28;;;;;;;12.40;4.00;;;;;;;10.31;34.13;100202.44;4935377;29;20079;-73
2022/05/07 01:02:57;;;;;;;14.00;4.05;;;;;;;10.36;33.94;100188.78;4951023;28;20074;-73
2022/05/07 01:05:24;;;;;;;11.65;4.20;;;;;;;10.40;33.90;100200.84;4944596;29;20071;-73
2022/05/07 01:07:51;;;;;;;11.40;4.03;;;;;;;10.30;34.03;100193.41;4934661;29;20499;-71
2022/05/07 01:10:18;;;;;;;14.73;4.00;;;;;;;10.28;34.25;100194.75;4942649;28;20520;-73
2022/05/07 01:12:47;;;;;;;35.38;6.20;;;;;;;10.33;34.12;100189.31;4962182;28;20055;-72
2022/05/07 01:15:14;;;;;;;13.55;4.03;;;;;;;10.27;34.15;100187.66;4946264;29;20039;-73
2022/05/07 01:17:42;;;;;;;13.60;4.47;;;;;;;10.31;33.98;100191.50;4945840;29;20141;-73
2022/05/07 01:20:14;;;;;;;10.30;3.80;;;;;;;10.24;34.17;100175.31;4951804;29;20113;-74
2022/05/07 01:22:44;;;;;;;10.82;3.90;;;;;;;10.32;33.96;100183.03;4949407;29;20051;-73
2022/05/07 01:25:13;;;;;;;8.63;3.47;;;;;;;10.30;34.17;100190.69;4944597;29;20066;-72
2022/05/07 01:27:39;;;;;;;13.15;4.93;;;;;;;10.19;34.46;100189.78;4951737;29;20571;-74
2022/05/07 01:30:07;;;;;;;19.02;4.10;;;;;;;10.26;34.47;100195.00;4946622;29;20457;-74
2022/05/07 01:32:35;;;;;;;14.18;4.93;;;;;;;10.23;34.45;100190.06;4941768;29;20048;-73
2022/05/07 01:35:03;;;;;;;11.68;4.40;;;;;;;10.10;34.60;100172.25;4944460;29;20061;-73
2022/05/07 01:37:29;;;;;;;20.17;4.40;;;;;;;10.10;34.59;100183.16;4931596;29;20051;-74
2022/05/07 01:39:58;;;;;;;17.53;4.40;;;;;;;10.18;34.53;100192.78;4916387;29;20060;-74
2022/05/07 01:42:25;;;;;;;12.43;4.75;;;;;;;10.18;34.68;100184.59;4939807;29;20314;-74
2022/05/07 01:44:51;;;;;;;22.33;4.82;;;;;;;10.16;34.57;100189.50;4924518;29;20059;-73
2022/05/07 01:50:04;;;;;;;16.30;4.70;;;;;;;10.19;34.82;100186.22;4934415;29;20123;-73
2022/05/07 01:52:31;;;;;;;13.77;4.30;;;;;;;10.23;34.75;100192.81;4926740;29;20239;-73
2022/05/07 01:54:58;;;;;;;14.07;4.20;;;;;;;10.16;34.67;100197.69;4908108;29;20043;-73
2022/05/07 01:57:25;;;;;;;11.57;3.70;;;;;;;10.20;34.67;100191.41;4935530;29;20066;-73
2022/05/07 01:59:53;;;;;;;;;;;;;;;10.21;34.63;100200.44;4946648;29;20050;-74
2022/05/07 02:02:19;;;;;;;10.63;3.78;;;;;;;10.11;34.91;100190.28;4937055;29;19981;-74
2022/05/07 02:04:45;;;;;;;19.60;4.13;;;;;;;10.14;34.79;100192.47;4949381;29;20051;-72
2022/05/07 02:07:14;;;;;;;19.75;4.20;;;;;;;10.21;34.48;100195.00;4947712;29;20058;-73
2022/05/07 02:09:41;;;;;;;13.45;3.80;;;;;;;10.19;34.96;100189.78;4955329;28;20052;-73
2022/05/07 02:12:10;;;;;;;14.48;4.22;;;;;;;10.15;34.88;100198.78;4947254;28;20071;-71
2022/05/07 02:14:40;;;;;;;13.85;4.57;;;;;;;10.21;34.85;100197.72;4930406;29;20513;-71
2022/05/07 02:17:06;;;;;;;11.18;4.05;;;;;;;10.23;34.57;100195.53;4950365;29;20047;-74
2022/05/07 02:19:32;;;;;;;11.38;4.18;;;;;;;10.23;34.88;100194.75;4927677;29;20083;-73
2022/05/07 02:21:59;;;;;;;19.80;3.80;;;;;;;10.16;34.79;100212.16;4911679;29;20047;-74
2022/05/07 02:24:25;;;;;;;13.52;4.38;;;;;;;10.21;34.89;100206.72;4949533;29;20056;-74
2022/05/07 02:26:51;;;;;;;10.13;4.13;;;;;;;10.16;35.02;100203.97;4944048;29;20134;-74
2022/05/07 02:29:20;;;;;;;13.13;4.18;;;;;;;10.10;34.95;100205.03;4933115;29;20571;-73
2022/05/07 02:32:06;;;;;;;20.95;3.90;;;;;;;10.12;35.12;100204.75;4936886;29;20110;-71
2022/05/07 02:34:37;;;;;;;13.10;4.00;;;;;;;10.14;35.12;100203.41;4929073;29;20425;-73
2022/05/07 02:37:08;;;;;;;26.17;4.20;;;;;;;10.06;35.16;100212.06;4940608;29;20052;-73
2022/05/07 02:39:35;;;;;;;17.73;4.10;;;;;;;10.08;35.16;100208.00;4919365;29;20063;-72
2022/05/07 02:44:47;;;;;;;15.18;4.80;;;;;;;10.11;35.09;100214.88;4936359;29;20047;-73
2022/05/07 02:47:13;;;;;;;15.40;4.10;;;;;;;10.07;35.23;100208.28;4938330;29;20115;-73
2022/05/07 02:49:40;;;;;;;12.77;3.92;;;;;;;10.15;35.13;100210.53;4935144;29;20051;-73
2022/05/07 02:52:07;;;;;;;9.20;3.90;;;;;;;10.12;35.22;100223.88;4946006;29;20428;-72
2022/05/07 02:54:34;;;;;;;25.20;5.68;;;;;;;10.11;35.25;100212.13;4938922;29;20122;-74
2022/05/07 02:57:00;;;;;;;15.07;4.00;;;;;;;10.15;35.29;100207.78;4951174;29;20058;-74
2022/05/07 02:59:27;;;;;;;9.68;3.63;;;;;;;10.16;35.28;100205.88;4953589;28;20094;-74
2022/05/07 03:01:53;;;;;;;13.32;3.70;;;;;;;10.26;35.11;100216.88;4947857;28;20047;-73
2022/05/07 03:04:20;;;;;;;12.10;3.75;;;;;;;10.28;35.25;100216.63;4943468;29;20102;-73
2022/05/07 03:06:46;;;;;;;21.95;4.40;;;;;;;10.30;35.24;100211.72;4951607;29;20043;-73
2022/05/07 03:09:12;;;;;;;12.18;4.20;;;;;;;10.23;35.15;100208.41;4953588;29;20051;-73
2022/05/07 03:11:38;;;;;;;13.25;3.80;;;;;;;10.30;35.20;100217.19;4950162;28;20062;-72
2022/05/07 03:14:06;;;;;;;21.75;4.38;;;;;;;10.37;35.15;100223.22;4946101;29;20110;-72
2022/05/07 03:16:35;;;;;;;10.02;3.40;;;;;;;10.37;35.04;100215.03;4941556;29;20060;-72
2022/05/07 03:19:02;;;;;;;11.57;4.22;;;;;;;10.37;35.16;100215.03;4947389;29;20078;-73
2022/05/07 03:21:29;;;;;;;12.02;4.07;;;;;;;10.52;34.83;100224.44;4935238;29;20055;-74
2022/05/07 03:23:56;;;;;;;13.20;4.15;;;;;;;10.56;35.06;100209.19;4952944;29;20125;-72
2022/05/07 03:26:22;;;;;;;11.95;5.32;;;;;;;10.52;34.85;100222.56;4954866;29;20057;-74
2022/05/07 03:28:59;;;;;;;21.37;4.43;;;;;;;10.44;35.06;100232.06;4953044;29;20079;-72
2022/05/07 03:31:27;;;;;;;10.35;4.45;;;;;;;10.50;34.85;100219.25;4928071;29;20415;-75
2022/05/07 03:33:53;;;;;;;18.15;4.30;;;;;;;10.59;34.81;100212.19;4936756;28;20484;-73
2022/05/07 03:36:24;;;;;;;13.00;4.50;;;;;;;10.64;34.97;100209.50;4945129;29;20082;-72
2022/05/07 03:38:53;;;;;;;11.25;4.30;;;;;;;10.51;34.99;100199.03;4951853;28;20065;-72
2022/05/07 03:41:23;;;;;;;15.27;4.93;;;;;;;10.66;35.05;100222.91;4927212;29;20055;-72
2022/05/07 03:43:49;;;;;;;14.85;4.40;;;;;;;10.70;34.85;100221.31;4949805;29;20424;-75
2022/05/07 03:46:15;;;;;;;17.05;4.03;;;;;;;10.72;34.93;100210.06;4944567;29;20066;-72
2022/05/07 03:48:51;;;;;;;11.55;3.97;;;;;;;10.75;34.94;100213.09;4929129;29;20043;-74
2022/05/07 03:51:17;;;;;;;17.27;4.07;;;;;;;10.73;35.16;100215.28;4930490;29;20083;-72
2022/05/07 03:53:45;;;;;;;14.52;4.07;;;;;;;10.68;35.30;100219.91;4950332;29;20063;-72
2022/05/07 03:56:20;;;;;;;19.38;4.32;;;;;;;10.72;35.22;100213.66;4952294;29;20051;-73
2022/05/07 03:58:47;;;;;;;19.27;4.30;;;;;;;10.74;35.36;100211.47;4932449;29;20669;-70
2022/05/07 04:01:22;;;;;;;19.40;4.38;;;;;;;10.85;35.14;100211.50;4936976;29;20198;-71
2022/05/07 04:03:48;;;;;;;15.35;4.50;;;;;;;10.86;35.13;100218.63;4951932;29;20080;-72
2022/05/07 04:06:17;;;;;;;17.02;4.07;;;;;;;10.88;35.27;100220.00;4952873;29;20047;-72
2022/05/07 04:08:45;;;;;;;20.83;5.03;;;;;;;10.83;35.43;100211.78;4933477;29;20055;-73
2022/05/07 04:11:14;;;;;;;11.75;4.15;;;;;;;10.88;35.39;100217.25;4951241;29;20130;-73
2022/05/07 04:13:40;;;;;;;17.05;4.57;;;;;;;10.89;35.25;100210.69;4948677;28;20587;-72
2022/05/07 04:16:07;;;;;;;10.48;4.15;;;;;;;11.02;35.21;100211.31;4947266;29;20458;-72
2022/05/07 04:18:42;;;;;;;18.95;5.10;;;;;;;11.06;35.27;100209.66;4939869;29;20051;-73
2022/05/07 04:21:13;;;;;;;11.95;4.50;;;;;;;11.12;35.41;100211.34;4916935;29;20052;-71
2022/05/07 04:27:24;;;;;;;12.48;4.47;;;;;;;11.24;35.39;100208.38;4938368;29;20074;-70
2022/05/07 04:29:57;;;;;;;11.30;4.22;;;;;;;11.08;35.31;100180.13;4952059;29;20146;-71
2022/05/07 04:32:24;;;;;;;15.75;4.45;;;;;;;11.41;35.43;100215.53;4936391;29;20058;-75
2022/05/07 04:34:55;;;;;;;10.30;3.92;;;;;;;11.45;35.43;100214.72;4949972;29;20057;-71
2022/05/07 04:37:23;;;;;;;13.80;4.38;;;;;;;11.51;35.24;100220.19;4934052;29;20055;-72
2022/05/07 04:39:49;;;;;;;19.77;4.47;;;;;;;11.56;34.66;100218.31;4919760;29;20081;-72
2022/05/07 04:42:15;;;;;;;18.83;4.07;;;;;;;11.62;34.62;100209.00;4930588;29;20475;-72
2022/05/07 04:44:51;;;;;;;13.70;4.60;;;;;;;11.67;34.54;100210.91;4943383;28;20049;-72
2022/05/07 04:47:25;;;;;;;12.25;5.05;;;;;;;11.73;34.47;100203.53;4946430;29;20114;-73
2022/05/07 04:49:52;;;;;;;13.52;4.47;;;;;;;11.72;34.08;100207.38;4942650;29;20051;-73
2022/05/07 04:52:18;;;;;;;14.75;4.40;;;;;;;11.73;33.94;100212.59;4948313;28;20036;-73
2022/05/07 04:54:49;;;;;;;15.15;5.78;;;;;;;11.67;33.77;100202.69;4937741;29;20106;-74
2022/05/07 04:57:17;;;;;;;15.70;4.75;;;;;;;11.65;33.78;100199.41;4952272;29;20059;-74
2022/05/07 04:59:54;;;;;;;15.63;4.88;;;;;;;11.69;33.86;100199.69;4951955;29;20063;-74
2022/05/07 05:02:21;;;;;;;17.40;6.07;;;;;;;11.75;33.90;100206.81;4931724;29;20074;-72
2022/05/07 05:04:54;;;;;;;13.75;5.30;;;;;;;11.83;34.28;100191.75;4951787;29;20170;-73
2022/05/07 05:07:25;;;;;;;16.73;4.57;;;;;;;11.84;34.13;100182.44;4951905;29;20110;-73
2022/05/07 05:09:52;;;;;;;15.05;5.18;;;;;;;11.89;34.15;100187.94;4951096;28;20051;-73
2022/05/07 05:12:29;;;;;;;21.45;5.70;;;;;;;11.97;34.08;100192.03;4931882;29;20045;-73
2022/05/07 05:15:04;;;;;;;15.63;4.70;;;;;;;12.05;34.02;100194.25;4942787;29;20059;-72
2022/05/07 05:17:43;;;;;;;20.23;4.85;;;;;;;12.10;33.80;100187.94;4945750;28;20059;-72
2022/05/07 05:20:10;;;;;;;13.05;4.43;;;;;;;12.13;33.63;100195.59;4934652;28;20052;-72
2022/05/07 05:22:45;;;;;;;13.38;4.30;;;;;;;12.16;33.69;100192.31;4950370;29;20110;-72
2022/05/07 05:25:14;;;;;;;19.08;5.30;;;;;;;12.08;33.59;100165.47;4935646;29;20456;-75
2022/05/07 05:27:40;;;;;;;19.65;4.72;;;;;;;12.25;33.52;100196.16;4922208;29;20051;-74
2022/05/07 05:30:09;;;;;;;20.97;4.97;;;;;;;12.29;33.62;100197.22;4939860;29;20398;-72
2022/05/07 05:32:36;;;;;;;16.63;3.88;;;;;;;12.37;33.63;100195.03;4946177;29;20059;-72
2022/05/07 05:35:04;;;;;;;19.15;4.35;;;;;;;12.40;33.58;100189.81;4935163;29;20063;-73
2022/05/07 05:37:36;;;;;;;10.30;4.47;;;;;;;12.48;33.58;100188.41;4935094;29;20059;-73
2022/05/07 05:40:03;;;;;;;11.65;4.28;;;;;;;12.52;33.63;100191.44;4949383;28;20549;-72
2022/05/07 05:42:37;;;;;;;13.98;4.20;;;;;;;12.57;33.43;100188.69;4927552;29;20115;-73
2022/05/07 05:45:07;;;;;;;20.95;4.70;;;;;;;12.70;33.35;100185.34;4910222;29;20058;-72
2022/05/07 05:47:35;;;;;;;13.98;3.88;;;;;;;12.78;33.42;100189.41;4932943;29;20043;-73
2022/05/07 05:50:03;;;;;;;11.80;4.15;;;;;;;12.82;33.31;100192.44;4948591;29;20051;-72
2022/05/07 05:52:35;;;;;;;15.82;4.47;;;;;;;12.88;33.10;100197.63;4948871;29;20114;-72
2022/05/07 05:55:01;;;;;;;14.60;3.90;;;;;;;12.95;32.95;100191.00;4952432;29;20150;-73
2022/05/07 05:57:27;;;;;;;22.10;4.88;;;;;;;13.01;33.15;100182.47;4925448;29;20495;-74
2022/05/07 05:59:54;;;;;;;19.50;4.10;;;;;;;13.15;33.04;100190.94;4944711;29;20074;-72
2022/05/07 06:02:23;;;;;;;10.98;3.78;;;;;;;13.25;32.81;100191.94;4947022;29;20102;-73
2022/05/07 06:04:59;;;;;;;16.95;5.30;;;;;;;13.31;32.54;100191.66;4904134;29;20195;-73
2022/05/07 06:07:32;;;;;;;12.32;3.72;;;;;;;13.40;32.52;100183.63;4945204;29;20043;-73
2022/05/07 06:10:01;;;;;;;19.13;4.20;;;;;;;13.49;32.30;100185.81;4933757;29;20067;-72
2022/05/07 06:12:29;;;;;;;15.55;4.47;;;;;;;13.54;31.99;100189.34;4935197;28;20134;-73
2022/05/07 06:19:17;;;;;;;15.70;3.75;;;;;;;13.60;31.25;100177.22;4947593;29;20054;-73
2022/05/07 06:21:51;;;;;;;17.38;3.92;;;;;;;13.76;30.81;100188.09;4950561;29;20051;-74
2022/05/07 06:29:53;;;;;;;12.30;4.10;;;;;;;13.99;30.58;100193.97;4931706;29;19927;-74
2022/05/07 06:32:19;;;;;;;12.38;3.85;;;;;;;14.03;29.87;100193.06;4927402;29;20047;-74
2022/05/07 06:34:46;;;;;;;12.15;3.72;;;;;;;14.12;30.00;100197.97;4918888;29;20448;-72
2022/05/07 06:37:14;;;;;;;9.40;3.78;;;;;;;14.21;30.01;100192.66;4921758;29;20051;-73
2022/05/07 06:39:59;;;;;;;10.30;3.45;;;;;;;14.21;29.67;100170.66;4928089;29;20059;-74
2022/05/07 06:42:35;;;;;;;10.88;3.83;;;;;;;14.31;29.54;100185.13;4943405;29;20055;-72
2022/05/07 06:45:31;;;;;;;16.35;4.20;;;;;;;14.39;29.62;100185.63;4934681;23;20060;-73
2022/05/07 06:47:58;;;;;;;12.75;4.13;;;;;;;14.46;28.85;100186.91;4912098;29;20099;-73
2022/05/07 06:50:25;;;;;;;18.77;3.90;;;;;;;14.54;28.67;100195.63;4912511;29;20465;-72
2022/05/07 06:52:53;;;;;;;9.85;3.60;;;;;;;14.57;28.79;100186.78;4909910;29;20509;-73
2022/05/07 06:55:23;;;;;;;11.05;3.55;;;;;;;14.67;29.01;100185.84;4910173;29;20521;-73
2022/05/07 06:57:50;;;;;;;14.52;4.60;;;;;;;14.75;28.97;100187.97;4912333;29;20060;-72
2022/05/07 07:00:17;;;;;;;13.38;3.85;;;;;;;14.74;28.52;100172.59;4909515;29;20062;-73
2022/05/07 07:02:43;;;;;;;13.93;3.63;;;;;;;14.83;28.02;100203.88;4912784;29;20139;-72
2022/05/07 07:05:10;;;;;;;14.55;4.10;;;;;;;14.76;27.55;100199.81;4911936;29;20429;-73
2022/05/07 07:07:36;;;;;;;11.07;3.92;;;;;;;14.79;27.92;100182.72;4909566;29;20072;-73
2022/05/07 07:10:03;;;;;;;10.07;3.53;;;;;;;14.83;27.90;100176.34;4912711;29;20047;-72
2022/05/07 07:12:29;;;;;;;10.55;3.88;;;;;;;14.93;28.12;100193.81;4911169;29;20160;-72
2022/05/07 07:14:57;;;;;;;11.80;4.82;;;;;;;15.00;27.97;100186.03;4913806;29;20048;-71
2022/05/07 07:17:25;;;;;;;16.30;6.00;;;;;;;15.00;27.89;100191.53;4899364;29;20509;-72
2022/05/07 07:19:52;;;;;;;12.68;3.67;;;;;;;15.01;27.43;100202.25;4913440;29;20064;-73
2022/05/07 07:22:18;;;;;;;10.90;3.85;;;;;;;14.97;27.75;100184.69;4915700;29;20055;-72
2022/05/07 07:24:44;;;;;;;16.98;3.90;;;;;;;15.08;27.35;100185.38;4915224;29;20414;-74
2022/05/07 07:27:11;;;;;;;9.82;3.75;;;;;;;15.18;27.63;100167.88;4915646;29;20056;-72
2022/05/07 07:29:39;;;;;;;12.70;3.90;;;;;;;15.27;27.34;100168.88;4909871;29;20092;-72
2022/05/07 07:32:06;;;;;;;10.70;3.78;;;;;;;15.33;27.18;100172.38;4913189;29;20059;-76
2022/05/07 07:34:32;;;;;;;33.13;4.28;;;;;;;15.41;26.84;100171.69;4894235;29;20095;-72
2022/05/07 07:36:58;;;;;;;11.15;3.55;;;;;;;15.47;26.75;100169.66;4912904;29;20055;-72
2022/05/07 07:39:24;;;;;;;10.38;3.67;;;;;;;15.45;26.44;100142.44;4912622;29;20465;-71
2022/05/07 07:41:52;;;;;;;;;;;;;;;15.45;26.20;100170.00;4915648;29;20058;-73
2022/05/07 07:44:19;;;;;;;10.32;3.20;;;;;;;15.43;25.77;100163.94;4914670;29;20029;-72
2022/05/07 07:49:30;;;;;;;24.30;4.25;;;;;;;15.56;26.00;100162.38;4914305;29;20048;-72
2022/05/07 07:51:56;;;;;;;21.73;3.90;;;;;;;15.63;26.12;100150.97;4911210;29;20406;-74
2022/05/07 07:54:23;;;;;;;13.77;3.80;;;;;;;15.72;25.93;100135.38;4912040;29;20067;-74
2022/05/07 07:56:49;;;;;;;14.70;3.20;;;;;;;15.74;25.40;100148.88;4910843;29;20064;-72
2022/05/07 07:59:16;;;;;;;15.02;4.45;;;;;;;15.83;25.00;100143.47;4912984;29;20044;-71
2022/05/07 08:01:43;;;;;;;12.00;3.30;;;;;;;15.83;24.74;100155.31;4913204;29;20135;-72
2022/05/07 08:04:10;;;;;;;13.88;5.18;;;;;;;15.94;25.32;100144.97;4911149;29;20052;-72
2022/05/07 08:06:36;;;;;;;15.15;4.03;;;;;;;16.03;24.89;100161.66;4919917;29;20512;-75
2022/05/07 08:12:05;;;;;;;19.90;3.15;;;;;;;15.99;23.81;100146.81;1359232;26;20429;-72
2022/05/07 08:14:31;;;;;;;8.90;3.25;;;;;;;16.02;23.94;100147.03;4918398;29;20588;-73
2022/05/07 08:16:58;;;;;;;11.77;3.20;;;;;;;16.08;23.92;100128.44;4910024;29;20051;-73
2022/05/07 08:19:41;;;;;;;11.45;3.30;;;;;;;16.11;23.89;100141.63;4915380;29;20135;-75
2022/05/07 08:22:07;;;;;;;10.68;3.63;;;;;;;16.12;23.92;100146.00;4913297;29;20092;-73
2022/05/07 08:24:34;;;;;;;10.50;3.15;;;;;;;16.11;23.44;100136.09;4911606;29;20047;-73
2022/05/07 08:27:00;;;;;;;16.40;3.25;;;;;;;16.13;23.52;100139.38;4913874;29;20536;-71
2022/05/07 08:29:27;;;;;;;8.30;3.08;;;;;;;16.23;24.03;100146.63;4913577;29;20394;-72
2022/05/07 08:31:53;;;;;;;11.18;3.78;;;;;;;16.23;23.70;100145.84;4923020;29;20056;-73
2022/05/07 08:34:20;;;;;;;12.65;3.22;;;;;;;16.26;24.34;100153.50;4897404;29;20068;-73
2022/05/07 08:36:47;;;;;;;9.93;3.25;;;;;;;16.35;23.99;100140.66;4933434;29;20067;-73
2022/05/07 08:39:13;;;;;;;10.73;3.38;;;;;;;16.43;23.14;100119.81;4915632;29;20131;-73
2022/05/07 08:41:39;;;;;;;11.10;3.85;;;;;;;16.46;24.12;100124.69;4915325;29;20048;-73
2022/05/07 08:44:06;;;;;;;10.57;3.80;;;;;;;16.51;23.70;100129.31;4912178;29;20146;-72
2022/05/07 08:46:33;;;;;;;9.55;3.40;;;;;;;16.53;23.46;100116.81;4920545;29;20084;-71
2022/05/07 08:48:59;;;;;;;8.40;3.30;;;;;;;16.56;23.24;100104.34;4913951;29;20505;-73
2022/05/07 08:51:27;;;;;;;9.30;3.10;;;;;;;16.66;23.39;100117.13;4912047;29;20052;-72
2022/05/07 08:54:12;;;;;;;12.98;3.47;;;;;;;16.71;23.36;100120.59;4912902;29;20048;-76
2022/05/07 08:56:38;;;;;;;15.50;3.22;;;;;;;16.76;23.27;100130.72;4911870;29;20062;-73
2022/05/07 08:59:05;;;;;;;9.48;3.28;;;;;;;16.77;23.30;100140.63;4905577;29;20497;-72
2022/05/07 09:01:32;;;;;;;13.57;3.45;;;;;;;16.70;23.09;100127.25;4917818;29;20056;-73
2022/05/07 09:04:08;;;;;;;13.98;3.55;;;;;;;16.78;22.89;100139.50;4914389;29;20056;-74
2022/05/07 09:06:36;;;;;;;11.10;3.30;;;;;;;16.81;23.23;100138.06;4905751;29;20119;-73
2022/05/07 09:09:06;;;;;;;15.02;3.45;;;;;;;16.87;23.03;100120.25;4910814;29;20517;-71
2022/05/07 09:11:42;;;;;;;15.43;3.42;;;;;;;16.84;22.85;100116.16;4896046;29;20052;-72
2022/05/07 09:14:09;;;;;;;9.93;3.70;;;;;;;16.91;23.15;100107.47;4911635;29;20055;-73
2022/05/07 09:16:40;;;;;;;11.85;3.25;;;;;;;16.96;23.10;100117.59;4915849;29;20059;-73
2022/05/07 09:19:18;;;;;;;14.38;3.10;;;;;;;16.87;22.88;100099.00;4914285;29;20052;-73
2022/05/07 09:21:48;;;;;;;17.02;3.58;;;;;;;16.95;23.00;100088.34;4914309;29;20060;-71
2022/05/07 09:24:15;;;;;;;10.90;3.25;;;;;;;16.94;22.75;100109.63;4915746;29;20052;-72
2022/05/07 09:26:43;;;;;;;12.07;3.53;;;;;;;16.95;22.93;100111.25;4899658;29;20048;-73
2022/05/07 09:29:11;;;;;;;13.35;3.33;;;;;;;17.04;22.98;100089.28;4909815;29;20512;-72
2022/05/07 09:31:42;;;;;;;10.15;3.30;;;;;;;17.11;22.72;100073.06;4909304;29;20052;-73
2022/05/07 09:37:00;;;;;;;18.35;3.42;;;;;;;16.99;22.87;100115.06;4905357;29;20059;-73
2022/05/07 09:39:33;;;;;;;10.95;3.22;;;;;;;16.79;23.06;100065.78;4905652;29;20060;-75
2022/05/07 09:42:08;;;;;;;10.63;3.47;;;;;;;16.95;22.58;100072.59;4908051;29;20056;-73
2022/05/07 09:44:35;;;;;;;13.80;4.40;;;;;;;17.01;22.95;100098.16;4906739;29;20044;-72
2022/05/07 09:47:04;;;;;;;8.65;2.90;;;;;;;17.07;22.36;100110.75;4909946;29;20060;-73
2022/05/07 09:52:33;;;;;;;16.30;3.55;;;;;;;17.23;22.71;100069.75;4911106;29;20072;-74
2022/05/07 09:58:26;;;;;;;23.08;3.95;;;;;;;17.46;23.17;100071.69;4908786;29;20048;-77
2022/05/07 10:01:09;;;;;;;9.55;3.40;;;;;;;17.49;23.02;100069.13;4908110;29;20072;-72
2022/05/07 10:03:46;;;;;;;12.35;3.72;;;;;;;17.54;22.75;100065.41;4910559;29;20160;-72
2022/05/07 10:06:36;;;;;;;10.88;3.13;;;;;;;17.56;22.42;100061.22;4912266;29;20040;-72
2022/05/07 10:09:18;;;;;;;15.05;3.67;;;;;;;17.61;22.79;100054.72;4906254;29;20056;-70
2022/05/07 10:11:50;;;;;;;15.77;4.07;;;;;;;17.63;22.68;100052.44;4906559;29;20481;-70
2022/05/07 10:14:26;;;;;;;16.00;3.60;;;;;;;17.70;22.15;100061.13;4894444;29;20052;-71
2022/05/07 10:16:57;;;;;;;29.87;4.57;;;;;;;17.74;22.46;100055.78;4912679;29;20151;-71
2022/05/07 10:19:34;;;;;;;8.48;3.40;;;;;;;17.75;22.32;100040.00;4911127;29;20518;-71
2022/05/07 10:22:00;;;;;;;10.88;3.42;;;;;;;17.90;22.68;100036.81;4912637;29;20192;-72
2022/05/07 10:24:27;;;;;;;19.58;3.50;;;;;;;18.07;22.19;100049.13;4911869;29;20151;-72
2022/05/07 10:27:32;;;;;;;12.55;3.60;;;;;;;18.10;22.43;100043.78;4915123;29;20517;-77
2022/05/07 10:30:06;;;;;;;11.65;3.60;;;;;;;18.18;22.24;100041.34;4909803;29;20056;-70
2022/05/07 10:32:53;;;;;;;13.23;3.65;;;;;;;18.23;22.11;100077.19;4909597;29;20055;-70
2022/05/07 10:35:38;;;;;;;9.98;3.35;;;;;;;18.24;21.79;100063.00;4911099;29;20071;-69
2022/05/07 10:38:07;;;;;;;16.63;3.85;;;;;;;18.26;21.76;100022.03;4912731;29;20059;-72
2022/05/07 10:40:36;;;;;;;17.05;3.60;;;;;;;18.40;21.15;100035.72;4911346;29;20580;-71
2022/05/07 10:43:03;;;;;;;13.57;3.75;;;;;;;18.51;21.91;100016.84;4904895;29;20072;-72
2022/05/07 10:45:39;;;;;;;11.75;3.50;;;;;;;18.55;21.53;100047.47;4914869;29;20139;-75
2022/05/07 10:48:17;;;;;;;13.05;3.08;;;;;;;18.42;21.26;100027.91;4915798;29;20177;-75
2022/05/07 10:50:50;;;;;;;11.85;3.20;;;;;;;18.22;21.38;100059.75;4913963;29;20150;-75
2022/05/07 10:53:17;;;;;;;11.18;3.40;;;;;;;18.28;21.70;100050.19;4914339;29;20071;-76
2022/05/07 10:55:44;;;;;;;12.00;3.43;;;;;;;18.27;21.79;100006.22;4892611;29;20518;-75
2022/05/07 11:01:28;;;;;;;8.05;3.22;;;;;;;18.27;21.73;99981.31;4921448;29;20539;-77
2022/05/07 11:04:06;;;;;;;11.60;3.45;;;;;;;18.28;21.70;99974.63;4921829;29;20052;-78
2022/05/07 11:06:49;;;;;;;10.93;3.35;;;;;;;18.30;21.47;99972.34;4915465;29;20497;-78
2022/05/07 11:12:30;;;;;;;13.75;4.47;;;;;;;18.60;21.66;99963.44;4904787;29;20062;-78
2022/05/07 11:15:03;;;;;;;10.25;3.45;;;;;;;18.38;21.13;99948.59;4913014;29;20493;-78
2022/05/07 11:17:54;;;;;;;17.30;3.55;;;;;;;18.73;21.20;100003.19;4902455;29;20172;-84
2022/05/07 11:20:39;;;;;;;11.32;3.40;;;;;;;18.41;21.05;99939.66;4909239;29;20506;-77
2022/05/07 11:23:05;;;;;;;14.33;3.87;;;;;;;18.35;21.07;99925.19;4909810;29;20265;-78
2022/05/07 11:28:49;;;;;;;44.03;5.57;;;;;;;18.90;22.10;99980.22;4894785;29;20212;-69
2022/05/07 17:23:11;;;;;;;13.43;4.43;;;;;;;23.94;23.71;100260.94;4659798;27;10001796;-55
2022/05/07 17:25:38;;;;;;;15.73;4.13;;;;;;;23.67;23.46;100261.72;4983834;28;20037;-52
2022/05/07 17:28:04;;;;;;;18.13;4.40;;;;;;;23.51;24.80;100263.28;5035304;28;20041;-53
2022/05/07 17:30:31;;;;;;;12.10;3.95;;;;;;;23.70;27.57;100266.59;5038510;28;20219;-59
2022/05/07 17:32:59;;;;;;;12.93;3.28;;;;;;;23.76;26.63;100268.78;5040455;28;20053;-64
2022/05/07 17:35:26;;;;;;;15.88;3.38;;;;;;;23.87;26.54;100259.94;5033877;28;20045;-61
2022/05/07 17:38:02;;;;;;;14.98;3.28;;;;;;;23.98;26.35;100265.81;5039723;28;20091;-65
2022/05/07 17:40:30;;;;;;;9.27;3.00;;;;;;;24.11;26.35;100272.19;5042088;28;20051;-65
2022/05/07 17:42:58;;;;;;;15.30;3.20;;;;;;;24.12;25.88;100260.66;5036481;28;20455;-60
2022/05/07 17:45:28;;;;;;;10.07;3.10;;;;;;;24.27;25.89;100272.25;5031578;28;20052;-64
2022/05/07 17:50:42;;;;;;;8.10;2.70;;;;;;;24.35;25.60;100265.66;5020402;28;20045;-65
2022/05/07 17:53:09;;;;;;;8.88;3.20;;;;;;;24.39;25.64;100260.19;5025320;28;20630;-64
2022/05/07 17:55:42;;;;;;;8.38;3.08;;;;;;;24.40;25.49;100257.03;5038471;28;20136;-65
2022/05/07 17:58:08;;;;;;;10.73;3.13;;;;;;;24.42;25.34;100260.28;5041086;28;20069;-60
2022/05/07 18:00:34;;;;;;;6.95;2.78;;;;;;;24.44;25.64;100259.94;5040053;28;20041;-59
2022/05/07 18:03:01;;;;;;;8.48;2.83;;;;;;;24.45;25.42;100264.34;5012875;28;20071;-61
2022/05/07 18:05:30;;;;;;;7.10;2.70;;;;;;;24.45;25.32;100256.75;5025162;28;20056;-62
2022/05/07 18:07:58;;;;;;;9.88;3.00;;;;;;;24.46;25.28;100260.38;5042041;28;20072;-59
2022/05/07 18:10:24;;;;;;;6.95;2.45;;;;;;;24.45;25.39;100258.75;5038585;28;20053;-65
2022/05/07 18:12:52;;;;;;;8.18;2.70;;;;;;;24.46;25.21;100260.38;5040418;28;20475;-60